Main page
METAR-TAF:

METAR-TAF

Airports :

Cuneo International Airport

Cuneo, Italy

latitude: 44-32-47N, longitude: 007-37-20E, elevation: 386 m

Current weather observation

The report was made 54 minutes ago, at 08:50 UTC
Wind 1 kt from variable directions
Temperature 11°C
Humidity 94%
Pressure 1005 hPa
Visibility: 5000 m
Scattered clouds at a height of 800 ft
Overcast at a height of 1500 ft
light rain

METAR: LIMZ 190850Z VRB01KT 5000 -RA SCT008 OVC015 11/10 Q1005 RERA

Time: 11:44 (09:44 UTC)

Forecast

The report was made 4 hours and 44 minutes ago, at 05:00 UTC
Forecast valid from 19 at 06 UTC to 20 at 06 UTC
Wind 5 kt from variable directions
Visibility: 7000 m
Scattered clouds at a height of 2500 ft
Broken clouds at a height of 5000 ft
Temporary
from 19 at 06 UTC to 20 at 06 UTC
Visibility: 4000 m
rain

TAF: LIMZ 190500Z 1906/2006 VRB05KT 7000 SCT025 BKN050 TEMPO 1906/2006 4000 RA

Weather observations and forecasts of more than 4000 airports (METAR and TAF reports).

The available stations are represented by yellow and red dots on the map.

Hover mouse over dot to see the name of the station.

Then click to see weather observations and forecasts.

To change the map : click on the green buttons with a black cross to zoom in, on the green button with a dash to zoom out, or on the green arrows for adjacent maps.


METAR-TAF: